Port Alexander, Alaska
Current Conditions -  °F | °C
As of 4:36 AM on Thursday 30 Oct 2014 (Local Time) from PAFE Reporting Station
Overcast Overcast  
Wind Chill: 42°   Ceiling: 4000
Heat Index: 46°   Visibility: 10mi
Dew Point: 39°   Wind: 9mph
Humidity: 76%   Direction: 130°SE
Pressure: 29.52"   Gusts: 16mph
Location:  56.25°N, 134.65°W
Report Text: PAFE 301236Z AUTO 13008G14KT 10SM OVC040 08/04 A2952 RMK AO1 P0001
Loading
Personal Weather Stations






























Interactive Weather Map
Tropical Storm Tracking
New forecast layout! Learn more

10-Day Weather Forecast

Advertisements
Track Severe Weather on mobile